Station Historical Data
Daily Summary for June 5, 2017 Units:  Metric    English   Both
« Previous Day
Next Day »
Daily Weekly Monthly Yearly Custom
  High: Low: Average:
Temperature: 18.5 °C 13.7 °C 15.6 °C
Dew Point: 15.6 °C 11.6 °C 13.3 °C
Humidity: 93% 81% 87%
Wind Speed: 12.9km/h 0km/h 2.1km/h
Wind Gust: 17.7km/h - -
Wind- - WNW
Pressure: 1008 hPa 1005.3 hPa -
Precipitation: 0 mm    
Historical Graphs
 
 
Tabular Data for June 5, 2017
Time Temperature Dew Point Pressure Wind Wind Speed Wind Gust Humidity Rainfall Rate (Hourly)
00:04 17.4 °C 15.3 °C 1006.3 hPa WSW 1.6 km/h 11.3 km/h 87% 0 mm
00:09 17.3 °C 15.2 °C 1006.3 hPa SW 8 km/h 9.7 km/h 87% 0 mm
00:14 17.2 °C 15.1 °C 1006.3 hPa SW 4.8 km/h 9.7 km/h 87% 0 mm
00:19 17.1 °C 14.9 °C 1006.3 hPa SW 3.2 km/h 8 km/h 87% 0 mm
00:24 16.9 °C 14.8 °C 1006.3 hPa WSW 4.8 km/h 6.4 km/h 87% 0 mm
00:29 16.8 °C 14.6 °C 1006.3 hPa WSW 3.2 km/h 4.8 km/h 87% 0 mm
00:34 16.7 °C 14.7 °C 1006.3 hPa WSW 3.2 km/h 6.4 km/h 88% 0 mm
00:39 16.6 °C 14.6 °C 1006.3 hPa WSW 3.2 km/h 8 km/h 88% 0 mm
00:44 16.4 °C 14.4 °C 1006.3 hPa WSW 3.2 km/h 8 km/h 88% 0 mm
00:49 16.3 °C 14.4 °C 1006.3 hPa WSW 3.2 km/h 9.7 km/h 89% 0 mm
00:54 16.2 °C 14.4 °C 1006.3 hPa West 1.6 km/h 9.7 km/h 89% 0 mm
00:59 16.2 °C 14.3 °C 1006.3 hPa West 1.6 km/h 4.8 km/h 89% 0 mm
01:04 16.2 °C 14.5 °C 1006.3 hPa West 1.6 km/h 4.8 km/h 90% 0 mm
01:09 16.2 °C 14.5 °C 1006.3 hPa Calm   3.2 km/h 90% 0 mm
01:14 16.2 °C 14.5 °C 1006.3 hPa Calm   3.2 km/h 90% 0 mm
01:19 16.2 °C 14.6 °C 1006.3 hPa Calm   3.2 km/h 90% 0 mm
01:24 16.3 °C 14.6 °C 1006.3 hPa Calm   3.2 km/h 90% 0 mm
01:29 16.3 °C 14.7 °C 1006.3 hPa Calm     90% 0 mm
01:34 16.3 °C 14.7 °C 1006.3 hPa West 1.6 km/h 3.2 km/h 90% 0 mm
01:39 16.3 °C 14.7 °C 1006.3 hPa West 1.6 km/h 4.8 km/h 90% 0 mm
01:44 16.2 °C 14.6 °C 1006.3 hPa West 1.6 km/h 4.8 km/h 90% 0 mm
01:49 16.1 °C 14.4 °C 1006.3 hPa West 1.6 km/h 4.8 km/h 90% 0 mm
01:54 16.1 °C 14.4 °C 1006.3 hPa Calm     90% 0 mm
01:59 16 °C 14.3 °C 1006.3 hPa Calm     90% 0 mm
02:04 15.9 °C 14.3 °C 1006.3 hPa Calm     90% 0 mm
02:09 15.9 °C 14.4 °C 1006 hPa Calm     91% 0 mm
02:14 15.8 °C 14.4 °C 1006.3 hPa Calm     91% 0 mm
02:19 15.7 °C 14.3 °C 1006 hPa Calm     91% 0 mm
02:24 15.6 °C 14.2 °C 1006 hPa Calm   4.8 km/h 91% 0 mm
02:29 15.6 °C 14.2 °C 1006.3 hPa West 1.6 km/h 4.8 km/h 91% 0 mm
02:34 15.6 °C 14.1 °C 1006.3 hPa West 1.6 km/h 4.8 km/h 91% 0 mm
02:39 15.4 °C 14 °C 1006 hPa Calm     91% 0 mm
02:44 15.3 °C 13.9 °C 1006 hPa Calm     91% 0 mm
02:49 15.2 °C 13.8 °C 1006 hPa Calm     91% 0 mm
02:54 15.2 °C 13.9 °C 1006 hPa Calm     92% 0 mm
02:59 15.2 °C 13.9 °C 1006 hPa Calm     92% 0 mm
03:04 15.2 °C 13.9 °C 1005.6 hPa Calm     92% 0 mm
03:09 15.2 °C 13.9 °C 1005.6 hPa Calm     92% 0 mm
03:14 15.2 °C 13.9 °C 1005.6 hPa Calm     92% 0 mm
03:19 15.1 °C 13.8 °C 1005.6 hPa Calm   3.2 km/h 92% 0 mm
03:24 15.1 °C 13.8 °C 1005.6 hPa Calm   3.2 km/h 92% 0 mm
03:29 14.9 °C 13.7 °C 1005.6 hPa Calm   1.6 km/h 92% 0 mm
03:34 14.9 °C 13.7 °C 1005.6 hPa Calm     92% 0 mm
03:39 14.8 °C 13.5 °C 1005.6 hPa Calm     92% 0 mm
03:44 14.8 °C 13.5 °C 1005.6 hPa Calm     92% 0 mm
03:49 14.8 °C 13.5 °C 1005.6 hPa Calm   3.2 km/h 92% 0 mm
03:54 14.7 °C 13.4 °C 1005.6 hPa Calm   3.2 km/h 92% 0 mm
03:59 14.6 °C 13.3 °C 1005.3 hPa Calm     92% 0 mm
04:04 14.4 °C 13.2 °C 1005.3 hPa Calm     92% 0 mm
04:09 14.3 °C 13 °C 1005.3 hPa Calm     92% 0 mm
04:14 14.2 °C 12.9 °C 1005.3 hPa Calm     92% 0 mm
04:19 14.1 °C 12.8 °C 1005.3 hPa Calm     92% 0 mm
04:24 13.9 °C 12.7 °C 1005.3 hPa Calm     92% 0 mm
04:29 13.9 °C 12.7 °C 1005.3 hPa Calm     92% 0 mm
04:34 13.9 °C 12.6 °C 1005.6 hPa Calm     92% 0 mm
04:39 13.9 °C 12.8 °C 1005.6 hPa Calm     93% 0 mm
04:44 13.9 °C 12.8 °C 1005.6 hPa Calm     93% 0 mm
04:49 14 °C 12.7 °C 1005.6 hPa Calm     92% 0 mm
04:54 14.1 °C 12.8 °C 1005.6 hPa Calm     92% 0 mm
04:59 14 °C 12.7 °C 1005.6 hPa Calm     92% 0 mm
05:04 14 °C 12.7 °C 1005.6 hPa Calm     92% 0 mm
05:09 13.9 °C 12.7 °C 1006 hPa Calm     92% 0 mm
05:14 13.9 °C 12.7 °C 1006 hPa NNW 8 km/h 9.7 km/h 92% 0 mm
05:19 13.9 °C 12.6 °C 1006 hPa NNW 3.2 km/h 9.7 km/h 92% 0 mm
05:24 13.9 °C 12.6 °C 1006 hPa NNW 3.2 km/h 8 km/h 92% 0 mm
05:29 13.9 °C 12.6 °C 1006 hPa NNW 3.2 km/h 9.7 km/h 92% 0 mm
05:34 13.9 °C 12.6 °C 1006 hPa NNW 3.2 km/h 9.7 km/h 92% 0 mm
05:39 13.8 °C 12.6 °C 1005.6 hPa North 1.6 km/h 6.4 km/h 92% 0 mm
05:44 13.8 °C 12.5 °C 1005.6 hPa Calm   1.6 km/h 92% 0 mm
05:49 13.7 °C 12.4 °C 1005.6 hPa Calm     92% 0 mm
05:54 13.8 °C 12.7 °C 1006 hPa Calm     93% 0 mm
05:59 13.9 °C 12.8 °C 1006 hPa Calm     93% 0 mm
06:04 13.9 °C 12.8 °C 1006 hPa Calm     93% 0 mm
06:09 13.9 °C 12.8 °C 1006 hPa Calm     93% 0 mm
06:14 13.9 °C 12.8 °C 1006 hPa Calm     93% 0 mm
06:19 14.1 °C 12.9 °C 1005.6 hPa Calm     93% 0 mm
06:24 14.3 °C 13.2 °C 1006 hPa Calm     93% 0 mm
06:29 14.4 °C 13.3 °C 1005.6 hPa Calm     93% 0 mm
06:34 14.5 °C 13.4 °C 1005.6 hPa Calm   6.4 km/h 93% 0 mm
06:39 14.7 °C 13.4 °C 1005.6 hPa Calm   3.2 km/h 92% 0 mm
06:44 14.8 °C 13.5 °C 1005.6 hPa South 1.6 km/h 6.4 km/h 92% 0 mm
06:49 14.9 °C 13.7 °C 1005.6 hPa Calm   6.4 km/h 92% 0 mm
06:54 15 °C 13.6 °C 1005.6 hPa Calm   4.8 km/h 91% 0 mm
06:59 15 °C 13.6 °C 1005.6 hPa Calm   4.8 km/h 91% 0 mm
07:04 15.1 °C 13.6 °C 1005.6 hPa Calm   4.8 km/h 91% 0 mm
07:09 15.2 °C 13.7 °C 1005.6 hPa Calm   3.2 km/h 91% 0 mm
07:14 15.3 °C 13.8 °C 1005.6 hPa Calm     91% 0 mm
07:19 15.4 °C 13.9 °C 1005.6 hPa Calm     91% 0 mm
07:24 15.4 °C 13.8 °C 1005.6 hPa Calm   3.2 km/h 90% 0 mm
07:29 15.5 °C 13.9 °C 1005.6 hPa Calm   3.2 km/h 90% 0 mm
07:34 15.6 °C 14 °C 1005.6 hPa Calm     90% 0 mm
07:39 15.8 °C 14.2 °C 1005.3 hPa Calm     90% 0 mm
07:44 15.9 °C 14.1 °C 1005.3 hPa Calm     89% 0 mm
07:49 16.2 °C 14.3 °C 1005.3 hPa Calm     89% 0 mm
07:54 16.1 °C 14.1 °C 1005.3 hPa Calm     88% 0 mm
07:59 16.3 °C 14.3 °C 1005.3 hPa Calm     88% 0 mm
08:04 16.4 °C 14.3 °C 1005.3 hPa Calm     87% 0 mm
08:09 16.7 °C 14.6 °C 1005.3 hPa Calm     87% 0 mm
08:14 16.9 °C 14.6 °C 1005.3 hPa Calm     86% 0 mm
08:19 16.9 °C 14.3 °C 1005.3 hPa Calm     85% 0 mm
08:29 16.9 °C 14.3 °C 1005.3 hPa Calm     85% 0 mm
08:34 16.8 °C 14.2 °C 1005.3 hPa Calm     85% 0 mm
08:39 16.8 °C 14.2 °C 1005.3 hPa Calm     85% 0 mm
08:44 16.7 °C 14.1 °C 1005.3 hPa Calm     85% 0 mm
08:49 16.6 °C 14 °C 1005.6 hPa Calm     85% 0 mm
08:54 16.4 °C 14.1 °C 1005.6 hPa North 4.8 km/h 8 km/h 86% 0 mm
08:59 16.3 °C 13.9 °C 1005.6 hPa NNW 3.2 km/h 9.7 km/h 86% 0 mm
09:04 16.2 °C 13.8 °C 1005.6 hPa NNW 3.2 km/h 9.7 km/h 86% 0 mm
09:09 16.1 °C 13.7 °C 1005.6 hPa NNW 3.2 km/h 6.4 km/h 86% 0 mm
09:14 16 °C 13.8 °C 1005.6 hPa NNW 1.6 km/h 4.8 km/h 87% 0 mm
09:19 16.1 °C 13.9 °C 1005.6 hPa NNW 1.6 km/h 6.4 km/h 87% 0 mm
09:24 16.2 °C 14.1 °C 1005.6 hPa NNW 6.4 km/h 6.4 km/h 87% 0 mm
09:29 16.3 °C 14.1 °C 1005.3 hPa NNW 4.8 km/h 8 km/h 87% 0 mm
09:34 16.5 °C 14.2 °C 1005.6 hPa NNE 1.6 km/h 6.4 km/h 86% 0 mm
09:39 16.6 °C 14.2 °C 1005.6 hPa NNE 1.6 km/h 4.8 km/h 86% 0 mm
09:44 16.4 °C 14.1 °C 1005.6 hPa Calm   6.4 km/h 86% 0 mm
09:49 16.4 °C 14.1 °C 1005.3 hPa Calm   3.2 km/h 86% 0 mm
09:54 16.6 °C 14.4 °C 1005.3 hPa Calm   4.8 km/h 87% 0 mm
09:59 16.8 °C 14.4 °C 1005.6 hPa North 1.6 km/h 6.4 km/h 86% 0 mm
10:04 16.7 °C 14.3 °C 1005.6 hPa NNW 3.2 km/h 6.4 km/h 86% 0 mm
10:09 16.6 °C 14.2 °C 1005.6 hPa NNW 1.6 km/h 6.4 km/h 86% 0 mm
10:14 16.4 °C 14.1 °C 1005.6 hPa NNW 3.2 km/h 8 km/h 86% 0 mm
10:19 16.4 °C 14.1 °C 1005.6 hPa NNW 4.8 km/h 8 km/h 86% 0 mm
10:24 16.4 °C 14.1 °C 1005.6 hPa Calm   4.8 km/h 86% 0 mm
10:29 16.7 °C 14.4 °C 1005.6 hPa NNW 1.6 km/h 8 km/h 86% 0 mm
10:34 16.7 °C 14.4 °C 1005.6 hPa NNW 3.2 km/h 8 km/h 86% 0 mm
10:39 16.5 °C 13.9 °C 1005.6 hPa NNW 4.8 km/h 11.3 km/h 85% 0 mm
10:44 16.4 °C 14.1 °C 1005.6 hPa NNW 4.8 km/h 11.3 km/h 86% 0 mm
10:49 16.3 °C 13.9 °C 1005.6 hPa NNW 1.6 km/h 4.8 km/h 86% 0 mm
10:54 16.2 °C 14.1 °C 1005.6 hPa NNW 3.2 km/h 6.4 km/h 87% 0 mm
10:59 16.1 °C 13.9 °C 1005.6 hPa North 3.2 km/h 4.8 km/h 87% 0 mm
11:04 16.1 °C 13.9 °C 1005.6 hPa North 3.2 km/h 8 km/h 87% 0 mm
11:09 16.1 °C 13.9 °C 1005.6 hPa NNW 4.8 km/h 8 km/h 87% 0 mm
11:14 16.1 °C 13.9 °C 1005.6 hPa North 3.2 km/h 6.4 km/h 87% 0 mm
11:19 16.1 °C 13.9 °C 1005.6 hPa NNW 4.8 km/h 8 km/h 87% 0 mm
11:24 16 °C 13.8 °C 1006 hPa NNW 3.2 km/h 8 km/h 87% 0 mm
11:29 15.9 °C 13.9 °C 1006 hPa NNW 3.2 km/h 9.7 km/h 88% 0 mm
11:34 15.9 °C 14.1 °C 1006 hPa NNW 3.2 km/h 9.7 km/h 89% 0 mm
11:39 15.9 °C 14.3 °C 1006 hPa NNW 1.6 km/h 9.7 km/h 90% 0 mm
11:44 15.9 °C 14.4 °C 1005.6 hPa NNW 1.6 km/h 6.4 km/h 91% 0 mm
11:49 15.8 °C 14.2 °C 1006 hPa NNW 3.2 km/h 8 km/h 90% 0 mm
11:54 15.8 °C 14.3 °C 1006 hPa Calm   8 km/h 91% 0 mm
11:59 15.9 °C 14.5 °C 1006 hPa NNW 1.6 km/h 8 km/h 91% 0 mm
12:04 15.9 °C 14.5 °C 1006 hPa NNW 1.6 km/h 4.8 km/h 91% 0 mm
12:09 16.1 °C 14.7 °C 1006 hPa NNW 3.2 km/h 4.8 km/h 91% 0 mm
12:14 16 °C 14.3 °C 1006 hPa Calm   6.4 km/h 90% 0.25 mm
12:19 16.4 °C 14.9 °C 1006 hPa NNW 3.2 km/h 4.8 km/h 91% 0.25 mm
12:24 16.3 °C 14.4 °C 1006 hPa Calm   9.7 km/h 89% 0.25 mm
12:29 16.3 °C 14.5 °C 1006 hPa NNW 3.2 km/h 9.7 km/h 89% 0.25 mm
12:34 16.4 °C 14.4 °C 1006 hPa NNW 3.2 km/h 6.4 km/h 88% 0.25 mm
12:39 16.8 °C 15.2 °C 1006 hPa NNW 3.2 km/h 6.4 km/h 90% 0.25 mm
12:44 17.1 °C 14.9 °C 1006 hPa NW 3.2 km/h 6.4 km/h 87% 0.25 mm
12:49 17.4 °C 15.2 °C 1006 hPa NNW 1.6 km/h 8 km/h 87% 0.25 mm
12:54 17.8 °C 15.1 °C 1006 hPa NNW 3.2 km/h 11.3 km/h 84% 0.25 mm
12:59 17.8 °C 15.1 °C 1006 hPa NNW 4.8 km/h 11.3 km/h 84% 0.25 mm
13:04 17.9 °C 15.2 °C 1006 hPa NNW 3.2 km/h 6.4 km/h 84% 0.25 mm
13:09 18.2 °C 15.1 °C 1006 hPa NNW 4.8 km/h 11.3 km/h 82% 0.25 mm
13:14 18.4 °C 15.6 °C 1006 hPa North 3.2 km/h 8 km/h 84% 0 mm
13:19 18.3 °C 15.2 °C 1006 hPa NW 6.4 km/h 8 km/h 82% 0 mm
13:24 18.5 °C 15.2 °C 1005.6 hPa NW 3.2 km/h 9.7 km/h 81% 0 mm
13:29 18.4 °C 15.1 °C 1006 hPa NW 4.8 km/h 9.7 km/h 81% 0 mm
13:34 18.2 °C 14.9 °C 1006 hPa NW 4.8 km/h 9.7 km/h 81% 0 mm
13:39 17.9 °C 14.8 °C 1006 hPa NW 4.8 km/h 9.7 km/h 82% 0 mm
13:44 17.7 °C 14.6 °C 1006 hPa NW 8 km/h 12.9 km/h 82% 0 mm
13:49 17.6 °C 14.7 °C 1006 hPa NNW 6.4 km/h 12.9 km/h 83% 0 mm
13:54 17.5 °C 14.4 °C 1006 hPa NNE 3.2 km/h 17.7 km/h 82% 0 mm
13:59 17.3 °C 14.4 °C 1006 hPa NNW 6.4 km/h 17.7 km/h 83% 0 mm
14:04 17.3 °C 14.4 °C 1006 hPa NNW 4.8 km/h 12.9 km/h 83% 0 mm
14:09 17.3 °C 14.4 °C 1006 hPa North 12.9 km/h 12.9 km/h 83% 0 mm
14:14 17 °C 14.1 °C 1006 hPa NNW 9.7 km/h 17.7 km/h 83% 0 mm
14:19 16.8 °C 13.9 °C 1006 hPa NNW 3.2 km/h 12.9 km/h 83% 0 mm
14:24 16.7 °C 13.9 °C 1006.3 hPa NNW 4.8 km/h 12.9 km/h 84% 0 mm
14:29 16.3 °C 13.6 °C 1006.3 hPa NNW 6.4 km/h 17.7 km/h 84% 0 mm
14:34 15.9 °C 13.2 °C 1006.3 hPa NNW 8 km/h 17.7 km/h 84% 0 mm
14:39 15.7 °C 13.2 °C 1006.3 hPa NNW 8 km/h 17.7 km/h 85% 0 mm
14:44 15.6 °C 13.1 °C 1006.3 hPa NNW 8 km/h 14.5 km/h 85% 0 mm
14:49 15.4 °C 13.1 °C 1006.3 hPa NW 4.8 km/h 12.9 km/h 86% 0 mm
14:54 15.3 °C 13 °C 1006.3 hPa Calm   14.5 km/h 86% 0 mm
14:59 15.2 °C 12.9 °C 1006.3 hPa NNW 4.8 km/h 14.5 km/h 86% 0 mm
15:04 15.2 °C 12.8 °C 1006.3 hPa NNW 4.8 km/h 11.3 km/h 86% 0 mm
15:09 15 °C 12.7 °C 1006.7 hPa NNW 3.2 km/h 17.7 km/h 86% 0 mm
15:14 15.1 °C 12.7 °C 1006.7 hPa West 3.2 km/h 12.9 km/h 86% 0 mm
15:19 14.9 °C 12.6 °C 1006.7 hPa North 3.2 km/h 16.1 km/h 86% 0 mm
15:24 15 °C 12.7 °C 1006.7 hPa North 8 km/h 11.3 km/h 86% 0 mm
15:29 15 °C 12.7 °C 1006.7 hPa North 4.8 km/h 11.3 km/h 86% 0 mm
15:34 15 °C 12.7 °C 1006.7 hPa NNW 6.4 km/h 14.5 km/h 86% 0 mm
15:39 15.1 °C 12.8 °C 1007 hPa NW 6.4 km/h 11.3 km/h 86% 0 mm
15:44 15.1 °C 12.6 °C 1007 hPa WNW 3.2 km/h 11.3 km/h 85% 0 mm
15:49 15.1 °C 12.6 °C 1007 hPa NNW 4.8 km/h 14.5 km/h 85% 0 mm
15:54 15.1 °C 12.6 °C 1007 hPa North 6.4 km/h 14.5 km/h 85% 0 mm
15:59 15.1 °C 12.6 °C 1007 hPa NNW 4.8 km/h 14.5 km/h 85% 0 mm
16:04 15.1 °C 12.6 °C 1007 hPa NNW 4.8 km/h 12.9 km/h 85% 0 mm
16:09 15.1 °C 12.6 °C 1007 hPa NNW 3.2 km/h 9.7 km/h 85% 0 mm
16:14 15.1 °C 12.6 °C 1007 hPa North 3.2 km/h 9.7 km/h 85% 0 mm
16:19 15.1 °C 12.6 °C 1007 hPa NNW 3.2 km/h 12.9 km/h 85% 0 mm
16:24 15.2 °C 12.7 °C 1006.7 hPa NNW 4.8 km/h 9.7 km/h 85% 0 mm
16:29 15.3 °C 12.9 °C 1006.7 hPa North 3.2 km/h 4.8 km/h 86% 0 mm
16:39 15.4 °C 12.9 °C 1006.7 hPa NNW 1.6 km/h 8 km/h 85% 0 mm
16:44 15.3 °C 12.7 °C 1006.7 hPa NNE 1.6 km/h 6.4 km/h 84% 0 mm
16:49 15.3 °C 12.7 °C 1006.7 hPa NNW 1.6 km/h 9.7 km/h 84% 0 mm
16:54 15.3 °C 12.6 °C 1006.7 hPa NNW 1.6 km/h 11.3 km/h 84% 0 mm
16:59 15.6 °C 13.1 °C 1006.7 hPa NNW 4.8 km/h 11.3 km/h 85% 0 mm
17:04 15.6 °C 12.9 °C 1006.7 hPa NNW 3.2 km/h 8 km/h 84% 0 mm
17:09 15.6 °C 12.7 °C 1006.7 hPa North 3.2 km/h 8 km/h 83% 0 mm
17:14 15.7 °C 12.8 °C 1006.7 hPa North 3.2 km/h 6.4 km/h 83% 0 mm
17:24 15.7 °C 12.8 °C 1006.7 hPa NNW 1.6 km/h 8 km/h 83% 0 mm
17:29 15.6 °C 12.7 °C 1006.7 hPa NNW 1.6 km/h 8 km/h 83% 0 mm
17:34 15.6 °C 12.7 °C 1006.7 hPa NNW 3.2 km/h 8 km/h 83% 0 mm
17:39 15.5 °C 12.8 °C 1006.7 hPa North 3.2 km/h 8 km/h 84% 0 mm
17:44 15.5 °C 12.8 °C 1006.7 hPa NNW 3.2 km/h 8 km/h 84% 0 mm
17:49 15.5 °C 12.8 °C 1006.7 hPa NW 4.8 km/h 9.7 km/h 84% 0 mm
17:54 15.7 °C 12.8 °C 1006.7 hPa NW 4.8 km/h 9.7 km/h 83% 0 mm
17:59 15.8 °C 12.8 °C 1006.7 hPa NW 1.6 km/h 11.3 km/h 82% 0 mm
18:04 15.8 °C 12.8 °C 1006.7 hPa NNW 1.6 km/h 8 km/h 82% 0 mm
18:09 15.7 °C 12.6 °C 1006.7 hPa NNW 1.6 km/h 8 km/h 82% 0 mm
18:14 15.6 °C 12.7 °C 1006.7 hPa North 3.2 km/h 11.3 km/h 83% 0 mm
18:19 15.5 °C 12.6 °C 1006.7 hPa NNW 3.2 km/h 6.4 km/h 83% 0 mm
18:24 15.4 °C 12.6 °C 1006.7 hPa NNW 1.6 km/h 6.4 km/h 83% 0 mm
18:29 15.4 °C 12.6 °C 1006.7 hPa NNW 1.6 km/h 6.4 km/h 83% 0 mm
18:34 15.3 °C 12.4 °C 1006.7 hPa North 3.2 km/h 9.7 km/h 83% 0 mm
18:39 15.3 °C 12.3 °C 1006.7 hPa NNW 3.2 km/h 11.3 km/h 82% 0 mm
18:44 15.3 °C 12.3 °C 1006.7 hPa Calm   8 km/h 82% 0 mm
18:49 15.3 °C 12.3 °C 1006.7 hPa NNW 1.6 km/h 6.4 km/h 82% 0 mm
18:54 15.3 °C 12.2 °C 1007 hPa NNW 3.2 km/h 8 km/h 82% 0 mm
18:59 15.3 °C 12.4 °C 1007 hPa NNW 3.2 km/h 8 km/h 83% 0 mm
19:04 15.3 °C 12.4 °C 1007 hPa NNW 1.6 km/h 4.8 km/h 83% 0 mm
19:09 15.3 °C 12.3 °C 1007 hPa NW 1.6 km/h 12.9 km/h 82% 0 mm
19:14 15.3 °C 12.3 °C 1007 hPa NNW 4.8 km/h 8 km/h 82% 0 mm
19:19 15.3 °C 12.2 °C 1007 hPa Calm   6.4 km/h 82% 0 mm
19:24 15.3 °C 12.2 °C 1007 hPa NNW 1.6 km/h 6.4 km/h 82% 0 mm
19:29 15.3 °C 12.2 °C 1007 hPa NNW 1.6 km/h 8 km/h 82% 0 mm
19:34 15.2 °C 12.3 °C 1007 hPa Calm   9.7 km/h 83% 0 mm
19:39 15.2 °C 12.3 °C 1007 hPa Calm   1.6 km/h 83% 0 mm
19:44 15.2 °C 12.1 °C 1007 hPa NNW 4.8 km/h 8 km/h 82% 0 mm
19:49 15.2 °C 12.2 °C 1007.3 hPa NNW 1.6 km/h 8 km/h 82% 0 mm
19:54 15.2 °C 12.1 °C 1007.3 hPa NNW 3.2 km/h 8 km/h 82% 0 mm
19:59 15.2 °C 12.1 °C 1007.3 hPa NW 3.2 km/h 8 km/h 82% 0 mm
20:04 15.2 °C 12.1 °C 1007.3 hPa NW 3.2 km/h 11.3 km/h 82% 0 mm
20:09 15.1 °C 12.1 °C 1007.3 hPa NNW 4.8 km/h 11.3 km/h 82% 0 mm
20:14 15.1 °C 12 °C 1007.3 hPa NNW 4.8 km/h 11.3 km/h 82% 0 mm
20:19 15.1 °C 12 °C 1007.3 hPa NNW 4.8 km/h 9.7 km/h 82% 0 mm
20:24 15.1 °C 12 °C 1007.3 hPa NNW 4.8 km/h 11.3 km/h 82% 0 mm
20:29 15 °C 11.9 °C 1007.3 hPa North 3.2 km/h 8 km/h 82% 0 mm
20:34 15 °C 12.1 °C 1007.3 hPa Calm   6.4 km/h 83% 0 mm
20:39 14.9 °C 12.1 °C 1007.3 hPa Calm     83% 0 mm
20:44 15 °C 12.1 °C 1007.3 hPa Calm     83% 0 mm
20:49 15 °C 12.1 °C 1007.3 hPa Calm     83% 0 mm
20:54 14.9 °C 12.1 °C 1007.3 hPa Calm   8 km/h 83% 0 mm
20:59 14.9 °C 12.1 °C 1007.3 hPa NW 1.6 km/h 8 km/h 83% 0 mm
21:04 14.9 °C 12 °C 1007.3 hPa NW 1.6 km/h 8 km/h 83% 0 mm
21:09 14.8 °C 11.9 °C 1007.7 hPa NW 1.6 km/h 4.8 km/h 83% 0 mm
21:14 14.8 °C 11.9 °C 1007.7 hPa Calm   8 km/h 83% 0 mm
21:19 14.8 °C 11.9 °C 1007.7 hPa Calm   6.4 km/h 83% 0 mm
21:24 14.8 °C 11.8 °C 1007.7 hPa NW 3.2 km/h 6.4 km/h 82% 0 mm
21:29 14.8 °C 11.7 °C 1007.7 hPa NW 1.6 km/h 4.8 km/h 82% 0 mm
21:34 14.8 °C 11.7 °C 1007.7 hPa NNW 1.6 km/h 6.4 km/h 82% 0 mm
21:39 14.8 °C 11.9 °C 1007.7 hPa NNW 1.6 km/h 6.4 km/h 83% 0 mm
21:44 14.8 °C 11.9 °C 1007.7 hPa NNW 1.6 km/h 3.2 km/h 83% 0 mm
21:49 14.8 °C 11.9 °C 1007.7 hPa Calm   3.2 km/h 83% 0 mm
21:54 14.7 °C 11.9 °C 1007.7 hPa WNW 1.6 km/h 6.4 km/h 83% 0 mm
21:59 14.7 °C 11.8 °C 1007.7 hPa Calm   3.2 km/h 83% 0 mm
22:04 14.6 °C 11.8 °C 1007.7 hPa Calm   3.2 km/h 83% 0 mm
22:09 14.6 °C 11.9 °C 1007.7 hPa Calm   1.6 km/h 84% 0 mm
22:14 14.5 °C 11.8 °C 1008 hPa Calm     84% 0 mm
22:19 14.5 °C 11.8 °C 1007.7 hPa Calm     84% 0 mm
22:24 14.5 °C 11.8 °C 1007.7 hPa Calm     84% 0 mm
22:29 14.5 °C 11.8 °C 1007.7 hPa Calm     84% 0 mm
22:34 14.4 °C 11.8 °C 1007.7 hPa Calm     84% 0 mm
22:39 14.4 °C 11.6 °C 1007.7 hPa Calm     83% 0 mm
22:44 14.5 °C 11.8 °C 1007.7 hPa Calm     84% 0 mm
22:49 14.6 °C 11.9 °C 1007.7 hPa Calm     84% 0 mm
22:54 14.6 °C 11.7 °C 1007.7 hPa Calm     83% 0 mm
22:59 14.6 °C 11.8 °C 1007.7 hPa Calm     83% 0 mm
23:04 14.6 °C 11.8 °C 1007.7 hPa Calm     83% 0 mm
23:09 14.6 °C 11.8 °C 1007.7 hPa Calm     83% 0 mm
23:14 14.6 °C 11.8 °C 1007.7 hPa Calm     83% 0 mm
23:19 14.7 °C 11.8 °C 1007.7 hPa Calm     83% 0 mm
23:24 14.7 °C 11.8 °C 1007.7 hPa Calm     83% 0 mm
23:29 14.7 °C 11.8 °C 1007.7 hPa Calm     83% 0 mm
23:34 14.7 °C 11.6 °C 1007.7 hPa Calm     82% 0 mm
23:39 14.6 °C 11.8 °C 1007.7 hPa Calm     83% 0 mm
23:44 14.6 °C 11.8 °C 1007.7 hPa SW 4.8 km/h 6.4 km/h 83% 0 mm
23:49 14.7 °C 11.6 °C 1007.7 hPa West 3.2 km/h 8 km/h 82% 0 mm
23:54 14.7 °C 11.8 °C 1007.7 hPa West 3.2 km/h 8 km/h 83% 0 mm
23:59 14.7 °C 11.8 °C 1007.7 hPa Calm   4.8 km/h 83% 0 mm
Buffalo, New York, USA
Compliments of Weather Underground - 2.5 mb